map of RKE home
RKE - Airport
Location
City:  København, Denmark
Near (Alt.):Copenhagen
Name:Roskilde
ICAO:EKRK
IATA:RKE

Details
Type:Airport (Aerodrome, Airfield)
Latitude:55°35'08"N (55.585567)
Longitude:12°07'53"E (12.131428)
Elevation:146 ft (45 m)
Variation:3.71°E (WMM2015 magnetic declination)
0.15° annual change
Runways:2
Longest:5902 × 105 ft (1799 × 32 m), paved

Time
Time Zone:UTC+1 (DST+2)
Local Time:

Weather
METAR:EKRK 162150Z AUTO 23018G28KT 6000NDV SCT006/// OVC008/// 05/04 Q0991

Related Locations
Nearby:
Farthest:CHT: 11533 mi / 18560 km
Waitangi [Tuuta], CIT, NZ

Find:

   beyond  
but within

Other Information
Maps:
NOTAMs:
Links:
Sources:

  
  • flag of Denmark
  

Sectional Chart

Flight Planning
at skyvector.com

Satellite Image

Google Maps Satellite view

 

Copyright © 2004-2019 Karl L. Swartz. All rights reserved.
The Great Circle Mapper name and logo are trademarks of the Great Circle Mapper.
All other trademarks mentioned herein belong to their respective owners.
Please see credits for attibutions and further copyright information.

  Follow gcmap on Facebook Follow gcmap on Twitter Follow gcmap on Google+ GCmap on LinkedIn

hCard Microformat

Geo Microformat